Simcha — PE7688 — position and weather

sailwx.info

Track history (hours):
 
Tides and Currents Weather Stations Pressure Air Temp Water Temp Dewpoint Dewpoint Depression Visibility Wind Speed Wind Dir Waves Ship Positions

Simcha

Last reported at 2018-Feb-22 18:49 UTC. Time now 2018-Feb-22 19:12 UTC.
Position N 51°59' E 004°60'.

Length 110 m.

MMSI: 244780014.

Date/timePositionNaut miles runAvg speedWind from/ knotsBaromVisibWave heightAir tempDewpointWater temp
2018-Feb-22 18:49N 51°59' E 004°60'2 5.4
2018-Feb-22 18:30N 51°58' E 004°57'3 5.3
2018-Feb-22 18:00N 51°56' E 004°54'3 6.1
2018-Feb-22 17:30N 51°56' E 004°49'3 6.8
2018-Feb-22 17:00N 51°54' E 004°44'3 6.7
2018-Feb-22 16:30N 51°53' E 004°39'3 6.3
2018-Feb-22 16:01N 51°50' E 004°40'8 1.7
2018-Feb-22 10:57N 51°42' E 004°37'3 7.3
2018-Feb-22 10:30N 51°46' E 004°38'4 7.1
2018-Feb-22 10:00N 51°49' E 004°39'3 6.5
2018-Feb-22 09:31N 51°52' E 004°38'3 6.1
2018-Feb-22 09:01N 51°54' E 004°42'510.7
2018-Feb-22 08:30N 51°56' E 004°50'4 9.0
2018-Feb-22 08:00N 51°58' E 004°57'6 7.9
2018-Feb-22 07:12N 52°00' E 005°06'1 1.9
2018-Feb-22 06:54N 52°01' E 005°07'3 6.6
2018-Feb-22 06:30N 52°03' E 005°06'12 7.6
2018-Feb-22 04:59N 52°15' E 005°01'4 8.1
2018-Feb-22 04:30N 52°18' E 005°01'4 7.4
2018-Feb-22 04:01N 52°21' E 004°58'1 2.4
2018-Feb-22 03:30N 52°23' E 004°58'4 7.2
2018-Feb-22 03:00N 52°23' E 005°04'5 8.1
2018-Feb-22 02:25N 52°26' E 005°10'69 5.9
2018-Feb-21 14:44N 53°15' E 006°31'2 7.1
2018-Feb-21 14:30N 53°15' E 006°33'2 3.7
2018-Feb-21 14:00N 53°13' E 006°36'0 0.0
2018-Feb-21 13:30N 53°13' E 006°36'1 2.3
2018-Feb-21 12:52N 53°14' E 006°38'3 7.6
2018-Feb-21 12:30N 53°15' E 006°42'4 7.6
2018-Feb-21 12:00N 53°17' E 006°48'4 7.4
2018-Feb-21 11:30N 53°19' E 006°53'2 4.1
2018-Feb-21 11:00N 53°19' E 006°57'2 4.8
2018-Feb-21 10:30N 53°21' E 006°59'3 0.2
2018-Feb-20 22:30N 53°24' E 006°57'3 7.0
2018-Feb-20 22:00N 53°21' E 006°59'2 3.3
2018-Feb-20 21:30N 53°19' E 006°58'1 2.2
2018-Feb-20 21:00N 53°19' E 006°56'0 0.1
2018-Feb-20 20:30N 53°19' E 006°56'0 0.0
2018-Feb-20 20:00N 53°19' E 006°56'0 0.6
2018-Feb-20 19:30N 53°19' E 006°56'3 5.0
2018-Feb-20 19:00N 53°18' E 006°52'5 5.2
2018-Feb-20 18:04N 53°16' E 006°44'0 5.1
2018-Feb-20 18:00N 53°16' E 006°44'2 5.0
2018-Feb-20 17:30N 53°15' E 006°40'3 5.1
2018-Feb-20 17:00N 53°14' E 006°37'1 2.1
2018-Feb-20 16:30N 53°14' E 006°35'2 4.3
2018-Feb-20 16:00N 53°15' E 006°32'2 4.5
2018-Feb-20 15:30N 53°16' E 006°28'42 3.9
2018-Feb-20 04:48N 52°48' E 005°36'2 6.4
2018-Feb-20 04:28N 52°46' E 005°35'3 6.4
2018-Feb-20 04:00N 52°43' E 005°34'3 6.4
2018-Feb-20 03:30N 52°40' E 005°33'3 6.3
2018-Feb-20 03:00N 52°37' E 005°31'4 6.5
2018-Feb-20 02:24N 52°33' E 005°27'2 3.5
2018-Feb-20 01:44N 52°31' E 005°26'2 6.0
2018-Feb-20 01:27N 52°30' E 005°24'3 6.5
2018-Feb-20 00:59N 52°29' E 005°19'3 6.6
2018-Feb-20 00:30N 52°27' E 005°15'3 6.6
2018-Feb-20 00:00N 52°26' E 005°10'3 6.6
2018-Feb-19 23:30N 52°24' E 005°06'3 6.4
2018-Feb-19 23:00N 52°22' E 005°01'2 4.5
2018-Feb-19 22:31N 52°23' E 004°58'1 2.9
2018-Feb-19 22:01N 52°21' E 004°58'4 7.7
2018-Feb-19 21:30N 52°18' E 005°01'4 8.1
2018-Feb-19 20:58N 52°14' E 005°00'7 7.0
2018-Feb-19 19:56N 52°07' E 005°04'3 7.9
2018-Feb-19 19:31N 52°04' E 005°06'3 1.5
2018-Feb-19 17:24N 52°00' E 005°06'2 5.0
2018-Feb-19 16:59N 51°59' E 005°04'3 4.7
2018-Feb-19 16:27N 51°59' E 004°60'2 5.1
2018-Feb-19 16:01N 51°58' E 004°56'3 5.7
2018-Feb-19 15:30N 51°56' E 004°52'3 5.5
2018-Feb-19 15:01N 51°55' E 004°48'3 5.9
2018-Feb-19 14:30N 51°54' E 004°44'3 6.6
2018-Feb-19 14:00N 51°53' E 004°39'3 5.8
2018-Feb-19 13:30N 51°51' E 004°40'4 7.9
2018-Feb-19 13:00N 51°47' E 004°38'5 0.8
2018-Feb-19 06:44N 51°42' E 004°36'0 0.0
2018-Feb-19 06:28N 51°42' E 004°36'0 0.0
2018-Feb-19 06:00N 51°42' E 004°36'0 0.0
2018-Feb-19 05:28N 51°42' E 004°36'0 0.1
2018-Feb-19 04:58N 51°42' E 004°36'0 0.0
2018-Feb-19 04:30N 51°42' E 004°36'0 0.0
2018-Feb-19 04:00N 51°42' E 004°36'0 0.0
2018-Feb-19 03:30N 51°42' E 004°36'0 0.0
2018-Feb-19 03:00N 51°42' E 004°36'0 0.0
2018-Feb-19 02:30N 51°42' E 004°36'0 0.0
2018-Feb-19 01:59N 51°42' E 004°36'0 0.0
2018-Feb-19 01:28N 51°42' E 004°36'0 0.0
2018-Feb-19 01:00N 51°42' E 004°36'0 0.0
2018-Feb-19 00:30N 51°42' E 004°36'0 0.0
2018-Feb-19 00:00N 51°42' E 004°36'0 0.0
2018-Feb-18 23:30N 51°42' E 004°36'0 0.0
2018-Feb-18 23:00N 51°42' E 004°36'0 0.0
2018-Feb-18 22:30N 51°42' E 004°36'0 0.0
2018-Feb-18 22:00N 51°42' E 004°36'0 0.0
2018-Feb-18 21:30N 51°42' E 004°36'0 0.0
2018-Feb-18 20:59N 51°42' E 004°36'1 1.4
2018-Feb-18 20:30N 51°42' E 004°37'3 5.0
2018-Feb-18 19:57N 51°42' E 004°32'25 0.9
2018-Feb-17 15:02N 51°27' E 004°01'0 7.3
2018-Feb-17 15:00N 51°27' E 004°01'510.4
2018-Feb-17 14:30N 51°22' E 003°56'5 9.4
2018-Feb-17 14:00N 51°20' E 003°49'0 0.8
2018-Feb-17 13:30N 51°20' E 003°49'2 4.3
2018-Feb-17 13:00N 51°18' E 003°50'6 7.4
2018-Feb-17 12:13N 51°12' E 003°48'2 7.5
2018-Feb-17 11:57N 51°10' E 003°48'0 0.3
2018-Feb-17 11:30N 51°10' E 003°47'0 0.0
2018-Feb-17 11:00N 51°10' E 003°47'0 0.0
2018-Feb-17 10:30N 51°10' E 003°47'0 0.0
2018-Feb-17 10:00N 51°10' E 003°47'0 0.0
2018-Feb-17 09:29N 51°10' E 003°47'0 0.0
2018-Feb-17 09:00N 51°10' E 003°47'0 0.0
2018-Feb-17 08:30N 51°10' E 003°47'0 0.0
2018-Feb-17 08:00N 51°10' E 003°47'0 0.0
2018-Feb-17 07:30N 51°10' E 003°47'0 0.0
2018-Feb-17 07:00N 51°10' E 003°47'0 0.0
2018-Feb-17 06:30N 51°10' E 003°47'0 0.0
2018-Feb-17 06:00N 51°10' E 003°47'0 0.0
2018-Feb-17 05:30N 51°10' E 003°47'0 0.0
2018-Feb-17 05:00N 51°10' E 003°47'0 0.0
2018-Feb-17 04:26N 51°10' E 003°47'0 0.0
2018-Feb-17 04:00N 51°10' E 003°47'0 0.0
2018-Feb-17 03:28N 51°10' E 003°47'0 0.0
2018-Feb-17 03:00N 51°10' E 003°47'0 0.0
2018-Feb-17 02:30N 51°10' E 003°47'0 0.0
2018-Feb-17 01:59N 51°10' E 003°47'0 0.0
2018-Feb-17 01:30N 51°10' E 003°47'0 0.0
2018-Feb-17 00:59N 51°10' E 003°47'0 0.0
2018-Feb-17 00:30N 51°10' E 003°47'0 0.0
2018-Feb-17 00:00N 51°10' E 003°47'0 0.0
2018-Feb-16 23:28N 51°10' E 003°47'0 0.0
2018-Feb-16 23:00N 51°10' E 003°47'0 0.0
2018-Feb-16 22:30N 51°10' E 003°47'0 0.0
2018-Feb-16 22:00N 51°10' E 003°47'0 0.0
2018-Feb-16 21:30N 51°10' E 003°47'0 0.0
2018-Feb-16 21:00N 51°10' E 003°47'0 0.0
2018-Feb-16 20:30N 51°10' E 003°47'0 0.0
2018-Feb-16 19:59N 51°10' E 003°47'0 0.0
2018-Feb-16 19:13N 51°10' E 003°47'5 3.7
2018-Feb-16 17:56N 51°15' E 003°49'3 7.1
2018-Feb-16 17:30N 51°18' E 003°50'3 4.9
2018-Feb-16 17:00N 51°20' E 003°49'0 0.4
2018-Feb-16 16:30N 51°20' E 003°49'2 3.9
2018-Feb-16 16:00N 51°21' E 003°52'4 7.0
2018-Feb-16 15:30N 51°23' E 003°56'4 6.9
2018-Feb-16 14:59N 51°26' E 003°59'29 4.5
2018-Feb-16 08:36N 51°43' E 004°37'1 8.5
2018-Feb-16 08:30N 51°43' E 004°39'4 8.1
2018-Feb-16 07:57N 51°46' E 004°45'3 7.3
2018-Feb-16 07:30N 51°48' E 004°48'4 7.2
2018-Feb-16 06:59N 51°49' E 004°54'44 7.6
2018-Feb-16 01:13N 51°52' E 006°04'2 8.8
2018-Feb-16 01:00N 51°51' E 006°07'17 7.8
2018-Feb-15 22:50N 51°40' E 006°29'3 8.7
2018-Feb-15 22:30N 51°39' E 006°33'3 5.6
2018-Feb-15 22:00N 51°37' E 006°35'5 6.6
2018-Feb-15 21:18N 51°34' E 006°41'2 8.3
2018-Feb-15 21:00N 51°32' E 006°41'3 5.8
2018-Feb-15 20:30N 51°29' E 006°41'4 7.3
2018-Feb-15 20:00N 51°26' E 006°43'11 6.3
2018-Feb-15 18:12N 51°14' E 006°46'1 6.0
2018-Feb-15 18:00N 51°13' E 006°45'3 5.1
2018-Feb-15 17:30N 51°11' E 006°45'17 6.1
2018-Feb-15 14:42N 50°56' E 006°58'5 0.7
2018-Feb-15 07:51N 50°51' E 006°59'3 0.2
2018-Feb-14 15:21N 50°54' E 007°01'2 4.7
2018-Feb-14 14:58N 50°55' E 006°59'17 3.7
2018-Feb-14 10:16N 51°10' E 006°48'1 4.5
2018-Feb-14 10:00N 51°11' E 006°46'2 3.7
2018-Feb-14 09:30N 51°12' E 006°44'1 2.4
2018-Feb-14 08:56N 51°13' E 006°45'11 0.6
2018-Feb-13 15:39N 51°24' E 006°45'1 5.0
2018-Feb-13 15:30N 51°25' E 006°44'2 4.3
2018-Feb-13 15:00N 51°27' E 006°43'2 0.3
2018-Feb-13 07:29N 51°27' E 006°47'0 0.0
2018-Feb-13 07:00N 51°27' E 006°47'0 0.0
2018-Feb-13 06:26N 51°27' E 006°47'0 0.0
2018-Feb-13 05:59N 51°27' E 006°47'0 0.0
2018-Feb-13 05:30N 51°27' E 006°47'0 0.0
2018-Feb-13 05:00N 51°27' E 006°47'0 0.0
2018-Feb-13 04:30N 51°27' E 006°47'0 0.0
2018-Feb-13 04:00N 51°27' E 006°47'0 0.0
2018-Feb-13 03:30N 51°27' E 006°47'0 0.0
2018-Feb-13 03:00N 51°27' E 006°47'0 0.0
2018-Feb-13 02:30N 51°27' E 006°47'0 0.0
2018-Feb-12 23:31N 51°27' E 006°47'0 0.0
2018-Feb-12 23:28N 51°27' E 006°47'0 0.0
2018-Feb-12 22:42N 51°27' E 006°47'0 0.0
2018-Feb-12 22:30N 51°27' E 006°47'0 0.0
2018-Feb-12 22:00N 51°27' E 006°47'0 0.0
2018-Feb-12 21:30N 51°27' E 006°47'0 0.0
2018-Feb-12 21:00N 51°27' E 006°47'0 0.0
2018-Feb-12 20:30N 51°27' E 006°47'0 0.0
2018-Feb-12 19:58N 51°27' E 006°47'0 0.0
2018-Feb-12 19:27N 51°27' E 006°47'  
Track history (hours):
 
Tides and Currents Weather Stations Pressure Air Temp Water Temp Dewpoint Dewpoint Depression Visibility Wind Speed Wind Dir Waves Ship Positions

Simcha

Last reported at 2018-Feb-22 18:49 UTC. Time now 2018-Feb-22 19:12 UTC.
Position N 51°59' E 004°60'.

Length 110 m.

MMSI: 244780014.

Date/timePositionNaut miles runAvg speedWind from/ knotsBaromVisibWave heightAir tempDewpointWater temp
2018-Feb-22 18:49N 51°59' E 004°60'2 5.4
2018-Feb-22 18:30N 51°58' E 004°57'3 5.3
2018-Feb-22 18:00N 51°56' E 004°54'3 6.1
2018-Feb-22 17:30N 51°56' E 004°49'3 6.8
2018-Feb-22 17:00N 51°54' E 004°44'3 6.7
2018-Feb-22 16:30N 51°53' E 004°39'3 6.3
2018-Feb-22 16:01N 51°50' E 004°40'8 1.7
2018-Feb-22 10:57N 51°42' E 004°37'3 7.3
2018-Feb-22 10:30N 51°46' E 004°38'4 7.1
2018-Feb-22 10:00N 51°49' E 004°39'3 6.5
2018-Feb-22 09:31N 51°52' E 004°38'3 6.1
2018-Feb-22 09:01N 51°54' E 004°42'510.7
2018-Feb-22 08:30N 51°56' E 004°50'4 9.0
2018-Feb-22 08:00N 51°58' E 004°57'6 7.9
2018-Feb-22 07:12N 52°00' E 005°06'1 1.9
2018-Feb-22 06:54N 52°01' E 005°07'3 6.6
2018-Feb-22 06:30N 52°03' E 005°06'12 7.6
2018-Feb-22 04:59N 52°15' E 005°01'4 8.1
2018-Feb-22 04:30N 52°18' E 005°01'4 7.4
2018-Feb-22 04:01N 52°21' E 004°58'1 2.4
2018-Feb-22 03:30N 52°23' E 004°58'4 7.2
2018-Feb-22 03:00N 52°23' E 005°04'5 8.1
2018-Feb-22 02:25N 52°26' E 005°10'69 5.9
2018-Feb-21 14:44N 53°15' E 006°31'2 7.1
2018-Feb-21 14:30N 53°15' E 006°33'2 3.7
2018-Feb-21 14:00N 53°13' E 006°36'0 0.0
2018-Feb-21 13:30N 53°13' E 006°36'1 2.3
2018-Feb-21 12:52N 53°14' E 006°38'3 7.6
2018-Feb-21 12:30N 53°15' E 006°42'4 7.6
2018-Feb-21 12:00N 53°17' E 006°48'4 7.4
2018-Feb-21 11:30N 53°19' E 006°53'2 4.1
2018-Feb-21 11:00N 53°19' E 006°57'2 4.8
2018-Feb-21 10:30N 53°21' E 006°59'3 0.2
2018-Feb-20 22:30N 53°24' E 006°57'3 7.0
2018-Feb-20 22:00N 53°21' E 006°59'2 3.3
2018-Feb-20 21:30N 53°19' E 006°58'1 2.2
2018-Feb-20 21:00N 53°19' E 006°56'0 0.1
2018-Feb-20 20:30N 53°19' E 006°56'0 0.0
2018-Feb-20 20:00N 53°19' E 006°56'0 0.6
2018-Feb-20 19:30N 53°19' E 006°56'3 5.0
2018-Feb-20 19:00N 53°18' E 006°52'5 5.2
2018-Feb-20 18:04N 53°16' E 006°44'0 5.1
2018-Feb-20 18:00N 53°16' E 006°44'2 5.0
2018-Feb-20 17:30N 53°15' E 006°40'3 5.1
2018-Feb-20 17:00N 53°14' E 006°37'1 2.1
2018-Feb-20 16:30N 53°14' E 006°35'2 4.3
2018-Feb-20 16:00N 53°15' E 006°32'2 4.5
2018-Feb-20 15:30N 53°16' E 006°28'42 3.9
2018-Feb-20 04:48N 52°48' E 005°36'2 6.4
2018-Feb-20 04:28N 52°46' E 005°35'3 6.4
2018-Feb-20 04:00N 52°43' E 005°34'3 6.4
2018-Feb-20 03:30N 52°40' E 005°33'3 6.3
2018-Feb-20 03:00N 52°37' E 005°31'4 6.5
2018-Feb-20 02:24N 52°33' E 005°27'2 3.5
2018-Feb-20 01:44N 52°31' E 005°26'2 6.0
2018-Feb-20 01:27N 52°30' E 005°24'3 6.5
2018-Feb-20 00:59N 52°29' E 005°19'3 6.6
2018-Feb-20 00:30N 52°27' E 005°15'3 6.6
2018-Feb-20 00:00N 52°26' E 005°10'3 6.6
2018-Feb-19 23:30N 52°24' E 005°06'3 6.4
2018-Feb-19 23:00N 52°22' E 005°01'2 4.5
2018-Feb-19 22:31N 52°23' E 004°58'1 2.9
2018-Feb-19 22:01N 52°21' E 004°58'4 7.7
2018-Feb-19 21:30N 52°18' E 005°01'4 8.1
2018-Feb-19 20:58N 52°14' E 005°00'7 7.0
2018-Feb-19 19:56N 52°07' E 005°04'3 7.9
2018-Feb-19 19:31N 52°04' E 005°06'3 1.5
2018-Feb-19 17:24N 52°00' E 005°06'2 5.0
2018-Feb-19 16:59N 51°59' E 005°04'3 4.7
2018-Feb-19 16:27N 51°59' E 004°60'2 5.1
2018-Feb-19 16:01N 51°58' E 004°56'3 5.7
2018-Feb-19 15:30N 51°56' E 004°52'3 5.5
2018-Feb-19 15:01N 51°55' E 004°48'3 5.9
2018-Feb-19 14:30N 51°54' E 004°44'3 6.6
2018-Feb-19 14:00N 51°53' E 004°39'3 5.8
2018-Feb-19 13:30N 51°51' E 004°40'4 7.9
2018-Feb-19 13:00N 51°47' E 004°38'5 0.8
2018-Feb-19 06:44N 51°42' E 004°36'0 0.0
2018-Feb-19 06:28N 51°42' E 004°36'0 0.0
2018-Feb-19 06:00N 51°42' E 004°36'0 0.0
2018-Feb-19 05:28N 51°42' E 004°36'0 0.1
2018-Feb-19 04:58N 51°42' E 004°36'0 0.0
2018-Feb-19 04:30N 51°42' E 004°36'0 0.0
2018-Feb-19 04:00N 51°42' E 004°36'0 0.0
2018-Feb-19 03:30N 51°42' E 004°36'0 0.0
2018-Feb-19 03:00N 51°42' E 004°36'0 0.0
2018-Feb-19 02:30N 51°42' E 004°36'0 0.0
2018-Feb-19 01:59N 51°42' E 004°36'0 0.0
2018-Feb-19 01:28N 51°42' E 004°36'0 0.0
2018-Feb-19 01:00N 51°42' E 004°36'0 0.0
2018-Feb-19 00:30N 51°42' E 004°36'0 0.0
2018-Feb-19 00:00N 51°42' E 004°36'0 0.0
2018-Feb-18 23:30N 51°42' E 004°36'0 0.0
2018-Feb-18 23:00N 51°42' E 004°36'0 0.0
2018-Feb-18 22:30N 51°42' E 004°36'0 0.0
2018-Feb-18 22:00N 51°42' E 004°36'0 0.0
2018-Feb-18 21:30N 51°42' E 004°36'0 0.0
2018-Feb-18 20:59N 51°42' E 004°36'1 1.4
2018-Feb-18 20:30N 51°42' E 004°37'3 5.0
2018-Feb-18 19:57N 51°42' E 004°32'25 0.9
2018-Feb-17 15:02N 51°27' E 004°01'0 7.3
2018-Feb-17 15:00N 51°27' E 004°01'510.4
2018-Feb-17 14:30N 51°22' E 003°56'5 9.4
2018-Feb-17 14:00N 51°20' E 003°49'0 0.8
2018-Feb-17 13:30N 51°20' E 003°49'2 4.3
2018-Feb-17 13:00N 51°18' E 003°50'6 7.4
2018-Feb-17 12:13N 51°12' E 003°48'2 7.5
2018-Feb-17 11:57N 51°10' E 003°48'0 0.3
2018-Feb-17 11:30N 51°10' E 003°47'0 0.0
2018-Feb-17 11:00N 51°10' E 003°47'0 0.0
2018-Feb-17 10:30N 51°10' E 003°47'0 0.0
2018-Feb-17 10:00N 51°10' E 003°47'0 0.0
2018-Feb-17 09:29N 51°10' E 003°47'0 0.0
2018-Feb-17 09:00N 51°10' E 003°47'0 0.0
2018-Feb-17 08:30N 51°10' E 003°47'0 0.0
2018-Feb-17 08:00N 51°10' E 003°47'0 0.0
2018-Feb-17 07:30N 51°10' E 003°47'0 0.0
2018-Feb-17 07:00N 51°10' E 003°47'0 0.0
2018-Feb-17 06:30N 51°10' E 003°47'0 0.0
2018-Feb-17 06:00N 51°10' E 003°47'0 0.0
2018-Feb-17 05:30N 51°10' E 003°47'0 0.0
2018-Feb-17 05:00N 51°10' E 003°47'0 0.0
2018-Feb-17 04:26N 51°10' E 003°47'0 0.0
2018-Feb-17 04:00N 51°10' E 003°47'0 0.0
2018-Feb-17 03:28N 51°10' E 003°47'0 0.0
2018-Feb-17 03:00N 51°10' E 003°47'0 0.0
2018-Feb-17 02:30N 51°10' E 003°47'0 0.0
2018-Feb-17 01:59N 51°10' E 003°47'0 0.0
2018-Feb-17 01:30N 51°10' E 003°47'0 0.0
2018-Feb-17 00:59N 51°10' E 003°47'0 0.0
2018-Feb-17 00:30N 51°10' E 003°47'0 0.0
2018-Feb-17 00:00N 51°10' E 003°47'0 0.0
2018-Feb-16 23:28N 51°10' E 003°47'0 0.0
2018-Feb-16 23:00N 51°10' E 003°47'0 0.0
2018-Feb-16 22:30N 51°10' E 003°47'0 0.0
2018-Feb-16 22:00N 51°10' E 003°47'0 0.0
2018-Feb-16 21:30N 51°10' E 003°47'0 0.0
2018-Feb-16 21:00N 51°10' E 003°47'0 0.0
2018-Feb-16 20:30N 51°10' E 003°47'0 0.0
2018-Feb-16 19:59N 51°10' E 003°47'0 0.0
2018-Feb-16 19:13N 51°10' E 003°47'5 3.7
2018-Feb-16 17:56N 51°15' E 003°49'3 7.1
2018-Feb-16 17:30N 51°18' E 003°50'3 4.9
2018-Feb-16 17:00N 51°20' E 003°49'0 0.4
2018-Feb-16 16:30N 51°20' E 003°49'2 3.9
2018-Feb-16 16:00N 51°21' E 003°52'4 7.0
2018-Feb-16 15:30N 51°23' E 003°56'4 6.9
2018-Feb-16 14:59N 51°26' E 003°59'29 4.5
2018-Feb-16 08:36N 51°43' E 004°37'1 8.5
2018-Feb-16 08:30N 51°43' E 004°39'4 8.1
2018-Feb-16 07:57N 51°46' E 004°45'3 7.3
2018-Feb-16 07:30N 51°48' E 004°48'4 7.2
2018-Feb-16 06:59N 51°49' E 004°54'44 7.6
2018-Feb-16 01:13N 51°52' E 006°04'2 8.8
2018-Feb-16 01:00N 51°51' E 006°07'17 7.8
2018-Feb-15 22:50N 51°40' E 006°29'3 8.7
2018-Feb-15 22:30N 51°39' E 006°33'3 5.6
2018-Feb-15 22:00N 51°37' E 006°35'5 6.6
2018-Feb-15 21:18N 51°34' E 006°41'2 8.3
2018-Feb-15 21:00N 51°32' E 006°41'3 5.8
2018-Feb-15 20:30N 51°29' E 006°41'4 7.3
2018-Feb-15 20:00N 51°26' E 006°43'11 6.3
2018-Feb-15 18:12N 51°14' E 006°46'1 6.0
2018-Feb-15 18:00N 51°13' E 006°45'3 5.1
2018-Feb-15 17:30N 51°11' E 006°45'17 6.1
2018-Feb-15 14:42N 50°56' E 006°58'5 0.7
2018-Feb-15 07:51N 50°51' E 006°59'3 0.2
2018-Feb-14 15:21N 50°54' E 007°01'2 4.7
2018-Feb-14 14:58N 50°55' E 006°59'17 3.7
2018-Feb-14 10:16N 51°10' E 006°48'1 4.5
2018-Feb-14 10:00N 51°11' E 006°46'2 3.7
2018-Feb-14 09:30N 51°12' E 006°44'1 2.4
2018-Feb-14 08:56N 51°13' E 006°45'11 0.6
2018-Feb-13 15:39N 51°24' E 006°45'1 5.0
2018-Feb-13 15:30N 51°25' E 006°44'2 4.3
2018-Feb-13 15:00N 51°27' E 006°43'2 0.3
2018-Feb-13 07:29N 51°27' E 006°47'0 0.0
2018-Feb-13 07:00N 51°27' E 006°47'0 0.0
2018-Feb-13 06:26N 51°27' E 006°47'0 0.0
2018-Feb-13 05:59N 51°27' E 006°47'0 0.0
2018-Feb-13 05:30N 51°27' E 006°47'0 0.0
2018-Feb-13 05:00N 51°27' E 006°47'0 0.0
2018-Feb-13 04:30N 51°27' E 006°47'0 0.0
2018-Feb-13 04:00N 51°27' E 006°47'0 0.0
2018-Feb-13 03:30N 51°27' E 006°47'0 0.0
2018-Feb-13 03:00N 51°27' E 006°47'0 0.0
2018-Feb-13 02:30N 51°27' E 006°47'0 0.0
2018-Feb-12 23:31N 51°27' E 006°47'0 0.0
2018-Feb-12 23:28N 51°27' E 006°47'0 0.0
2018-Feb-12 22:42N 51°27' E 006°47'0 0.0
2018-Feb-12 22:30N 51°27' E 006°47'0 0.0
2018-Feb-12 22:00N 51°27' E 006°47'0 0.0
2018-Feb-12 21:30N 51°27' E 006°47'0 0.0
2018-Feb-12 21:00N 51°27' E 006°47'0 0.0
2018-Feb-12 20:30N 51°27' E 006°47'0 0.0
2018-Feb-12 19:58N 51°27' E 006°47'0 0.0
2018-Feb-12 19:27N 51°27' E 006°47'  

Dump ship's entire track history